Decoded METAR Reports


Created by using MetarWeather

Station Name Location Elevation Time Temperature Dew Point RH Heat Index Wind Visibility Pressure Sky Condition Weather Remarks METAR
Alexandroupolis  40.85N 25.92E  3m  14/07/2014 09:50:00  26.0C  18.0C  61%  27.0C  13 km/h, E (80 degrees)  > 10000m  1010.8 mb           LGAL 140650Z 08007KT CAVOK 26/18 Q1011 
Andravida (Civ/A  37.92N 21.27E  12m  14/07/2014 10:20:00  27.0C  18.0C  58%  27.9C  Calm  > 10000m  1012.9 mb  Scattered clouds at 610m
 
      LGAD 140720Z 00000KT 9999 SCT020 27/18 Q1013 
Araxos (Civ/Afb)  38.17N 21.42E  15m  14/07/2014 09:50:00  26.0C  20.0C  70%  27.3C  6 km/h, Variable  > 10000m  1012.9 mb  Few clouds at 610m
 
      LGRX 140650Z VRB03KT 9999 FEW020 26/20 Q1013 NOSIG 
Athens/Elef-Ven  37.93N 23.95E  94m  14/07/2014 10:20:00  30.0C  10.0C  29%  28.7C  6 km/h, Variable  > 10000m  1010.8 mb           LGAV 140720Z VRB03KT CAVOK 30/10 Q1011 NOSIG 
Chios Airport  38.32N 26.12E  4m  14/07/2014 09:50:00  26.0C  17.0C  58%  26.8C  6 km/h, ENE (60 degrees)  > 10000m  1009.1 mb           LGHI 140650Z 06003KT CAVOK 26/17 Q1009 
Elefsis (Hel-Afb  38.07N 23.55E  31m  14/07/2014 10:20:00  30.0C  9.0C  27%  28.6C  13 km/h, N (350 degrees)  > 10000m  1010.2 mb           LGEL 140720Z 35007KT CAVOK 30/09 Q1010 NOSIG 
Ioannis Kapodist  39.60N 19.92E  2m  14/07/2014 10:20:00  24.0C  20.0C  78%  24.5C  7 km/h, SE (140 degrees)  > 10000m  1012.9 mb  Scattered clouds at 430m
Scattered clouds at 610m
Broken clouds at 2700m
 
      LGKR 140720Z 14004KT 9999 SCT014 SCT020 BKN090 24/20 Q1013 NOSIG 
Iraklion (Civ/Af  35.32N 25.17E  39m  14/07/2014 10:20:00  27.0C  17.0C  54%  27.7C  30 km/h, NW (320 degrees)  > 10000m  1010.2 mb           LGIR 140720Z 32016KT CAVOK 27/17 Q1010 NOSIG 
Kalamata (Hel-Af  37.07N 22.02E  8m  14/07/2014 10:20:00  28.0C  14.0C  42%  27.8C  15 km/h, NNE (30 degrees)  > 10000m  1011.9 mb           LGKL 140720Z 03008KT CAVOK 28/14 Q1012 
Karpathos  35.42N 27.15E  20m  14/07/2014 09:50:00  25.0C  20.0C  74%  26.0C  26 km/h, WNW (290 degrees)  > 10000m  1009.1 mb  Broken clouds at 340m
 
      LGKP 140650Z 29014KT 9999 BKN011 25/20 Q1009 
Kavala/Chrisoupo  40.92N 24.62E  5m  14/07/2014 10:20:00  26.0C  17.0C  58%  26.8C  11 km/h, E (80 degrees)  > 10000m  1010.8 mb  Few clouds at 1100m
 
      LGKV 140720Z 08006KT 9999 FEW035 26/17 Q1011 
Kefallinia  38.12N 20.50E  18m  14/07/2014 09:50:00  25.0C  19.0C  69%  26.0C  6 km/h, Variable  > 10000m  1012.9 mb  Few clouds at 490m
 
      LGKF 140650Z VRB03KT 9999 FEW016 25/19 Q1013 
Kos Airport  36.80N 27.08E  130m  14/07/2014 10:20:00  27.0C  15.0C  48%  27.3C  19 km/h, NNW (330 degrees)  > 10000m  1009.1 mb           LGKO 140720Z 33010KT CAVOK 27/15 Q1009 
Kozani (Civ/Army  40.28N 21.85E  630m  14/07/2014 10:20:00  24.0C  8.0C  36%  25.2C  9 km/h, NNE (20 degrees)    1013.9 mb           LGKZ 140720Z AUTO 02005KT 300V060 //// // ////// 24/08 Q1014 RE// 
Limnos Island Ar  39.92N 25.23E  5m  14/07/2014 10:20:00  29.0C  17.0C  48%  29.5C  7 km/h, ENE (70 degrees)  > 10000m  1010.2 mb           LGLM 140720Z 07004KT CAVOK 29/17 Q1010 
Mikonos Island  37.43N 25.35E  120m  14/07/2014 10:20:00  26.0C  18.0C  61%  27.0C  15 km/h, N (10 degrees)  > 10000m  1010.8 mb           LGMK 140720Z 01008KT CAVOK 26/18 Q1011 
Mitilini  39.05N 26.60E  17m  14/07/2014 10:20:00  26.0C  19.0C  65%  27.1C  11 km/h, N (350 degrees)  > 10000m  1010.8 mb           LGMT 140720Z 35006KT CAVOK 26/19 Q1011 
Paros  37.00N 25.07E  36m  14/07/2014 09:50:00  27.0C  17.0C  54%  27.7C  17 km/h, N (350 degrees)  > 10000m  1010.8 mb           LGPA 140650Z 35009KT CAVOK 27/17 Q1011 
Preveza/Aktion  38.62N 20.77E  4m  14/07/2014 10:20:00  26.0C  18.0C  61%  27.0C  6 km/h, Variable  > 10000m  1013.9 mb  Scattered clouds at 760m
 
      LGPZ 140720Z VRB03KT 9999 SCT025 26/18 Q1014 NOSIG 
Rhodes/Diagoras  36.40N 28.08E  5m  14/07/2014 10:20:00  26.0C  21.0C  74%  27.4C  28 km/h, WSW (240 degrees)  > 10000m  1007.1 mb           LGRP 140720Z 24015KT CAVOK 26/21 Q1007 NOSIG 
Samos Airport  37.68N 26.92E  6m  14/07/2014 09:50:00  27.0C  16.0C  51%  27.5C  20 km/h, N (10 degrees)  > 10000m  1009.1 mb           LGSM 140650Z 01011KT CAVOK 27/16 Q1009 
Santorini Island  36.40N 25.48E  40m  14/07/2014 10:20:00  29.0C  15.0C  43%  28.9C  20 km/h, WNW (290 degrees)  > 10000m  1010.2 mb           LGSR 140720Z 29011KT 270V330 CAVOK 29/15 Q1010 NOSIG 
Skiathos Island  39.18N 23.50E  15m  14/07/2014 09:50:00  27.0C  22.0C  74%  29.2C  15 km/h, NNW (340 degrees)  > 10000m  1010.8 mb  Few clouds at 490m
Scattered clouds at 760m
 
      LGSK 140650Z 34008KT 9999 FEW016 SCT025 27/22 Q1011 
Souda/Khania (Af  35.47N 24.12E  150m  14/07/2014 10:20:00  27.0C  16.0C  51%  27.5C  35 km/h, WNW (300 degrees)  > 10000m  1011.9 mb  Few clouds at 760m
 
      LGSA 140720Z 30019KT 9999 FEW025 27/16 Q1012 
Syros  37.42N 24.95E  72m  14/07/2014 09:50:00  29.0C  14.0C  40%  28.6C  6 km/h, Variable  > 10000m  1010.8 mb           LGSO 140650Z VRB03KT CAVOK 29/14 Q1011 
Thessaloniki/Mik  40.52N 22.97E  7m  14/07/2014 10:20:00  27.0C  14.0C  45%  27.1C  17 km/h, WNW (300 degrees)  > 10000m  1010.8 mb  Few clouds at 910m
 
      LGTS 140720Z 30009KT 9999 FEW030 27/14 Q1011 NOSIG 
Zakinthos Airpor  37.75N 20.87E  3m  14/07/2014 10:20:00  28.0C  19.0C  58%  29.3C  11 km/h, SE (140 degrees)  > 10000m  1012.9 mb  Few clouds at 610m
 
      LGZA 140720Z 14006KT 9999 FEW020 28/19 Q1013